sensor_id;sensor_type;location;lat;lon;timestamp;P1;durP1;ratioP1;P2;durP2;ratioP2
45578;SDS011;31293;51.390;12.254;2023-10-31T00:01:53;0.98;;;0.98;;
45578;SDS011;31293;51.390;12.254;2023-10-31T00:03:56;1.50;;;1.40;;
45578;SDS011;31293;51.390;12.254;2023-10-31T00:05:59;2.05;;;1.95;;
45578;SDS011;31293;51.390;12.254;2023-10-31T00:08:02;1.73;;;1.63;;
45578;SDS011;31293;51.390;12.254;2023-10-31T00:10:04;2.25;;;1.63;;
45578;SDS011;31293;51.390;12.254;2023-10-31T00:12:06;1.45;;;1.35;;
45578;SDS011;31293;51.390;12.254;2023-10-31T00:14:08;1.42;;;1.33;;
45578;SDS011;31293;51.390;12.254;2023-10-31T00:16:30;2.45;;;1.40;;
45578;SDS011;31293;51.390;12.254;2023-10-31T00:18:32;2.55;;;2.10;;
45578;SDS011;31293;51.390;12.254;2023-10-31T00:20:35;20.88;;;2.90;;
45578;SDS011;31293;51.390;12.254;2023-10-31T00:22:37;1.98;;;1.88;;
45578;SDS011;31293;51.390;12.254;2023-10-31T00:24:39;2.45;;;2.25;;
45578;SDS011;31293;51.390;12.254;2023-10-31T00:26:41;1.60;;;1.50;;
45578;SDS011;31293;51.390;12.254;2023-10-31T00:28:43;1.52;;;1.42;;
45578;SDS011;31293;51.390;12.254;2023-10-31T00:30:45;2.15;;;1.95;;
45578;SDS011;31293;51.390;12.254;2023-10-31T00:32:46;1.83;;;1.73;;
45578;SDS011;31293;51.390;12.254;2023-10-31T00:34:48;1.48;;;1.38;;
45578;SDS011;31293;51.390;12.254;2023-10-31T00:36:50;2.30;;;2.20;;
45578;SDS011;31293;51.390;12.254;2023-10-31T00:38:52;2.28;;;1.77;;
45578;SDS011;31293;51.390;12.254;2023-10-31T00:40:54;1.70;;;1.60;;
45578;SDS011;31293;51.390;12.254;2023-10-31T00:42:56;1.98;;;1.73;;
45578;SDS011;31293;51.390;12.254;2023-10-31T00:44:59;2.25;;;2.10;;
45578;SDS011;31293;51.390;12.254;2023-10-31T00:47:01;2.63;;;2.20;;
45578;SDS011;31293;51.390;12.254;2023-10-31T00:49:03;2.00;;;1.90;;
45578;SDS011;31293;51.390;12.254;2023-10-31T00:51:07;2.15;;;1.80;;
45578;SDS011;31293;51.390;12.254;2023-10-31T00:53:12;3.50;;;2.25;;
45578;SDS011;31293;51.390;12.254;2023-10-31T00:55:16;2.00;;;1.90;;
45578;SDS011;31293;51.390;12.254;2023-10-31T00:57:17;2.65;;;2.45;;
45578;SDS011;31293;51.390;12.254;2023-10-31T00:59:19;2.17;;;2.08;;
45578;SDS011;31293;51.390;12.254;2023-10-31T01:01:22;2.65;;;2.45;;
45578;SDS011;31293;51.390;12.254;2023-10-31T01:03:23;2.13;;;2.03;;
45578;SDS011;31293;51.390;12.254;2023-10-31T01:05:26;2.47;;;2.38;;
45578;SDS011;31293;51.390;12.254;2023-10-31T01:07:30;4.88;;;3.05;;
45578;SDS011;31293;51.390;12.254;2023-10-31T01:09:32;3.47;;;3.28;;
45578;SDS011;31293;51.390;12.254;2023-10-31T01:11:34;3.05;;;2.85;;
45578;SDS011;31293;51.390;12.254;2023-10-31T01:13:37;3.50;;;3.20;;
45578;SDS011;31293;51.390;12.254;2023-10-31T01:15:39;4.13;;;3.92;;
45578;SDS011;31293;51.390;12.254;2023-10-31T01:17:41;4.20;;;4.00;;
45578;SDS011;31293;51.390;12.254;2023-10-31T01:19:43;2.90;;;2.80;;
45578;SDS011;31293;51.390;12.254;2023-10-31T01:21:45;3.90;;;3.60;;
45578;SDS011;31293;51.390;12.254;2023-10-31T01:23:47;3.53;;;3.33;;
45578;SDS011;31293;51.390;12.254;2023-10-31T01:25:49;4.85;;;4.45;;
45578;SDS011;31293;51.390;12.254;2023-10-31T01:27:52;4.80;;;4.40;;
45578;SDS011;31293;51.390;12.254;2023-10-31T01:29:54;4.40;;;3.97;;
45578;SDS011;31293;51.390;12.254;2023-10-31T01:31:57;3.88;;;3.67;;
45578;SDS011;31293;51.390;12.254;2023-10-31T01:34:03;4.57;;;4.28;;
45578;SDS011;31293;51.390;12.254;2023-10-31T01:36:05;3.35;;;3.15;;
45578;SDS011;31293;51.390;12.254;2023-10-31T01:38:08;3.38;;;3.17;;
45578;SDS011;31293;51.390;12.254;2023-10-31T01:40:13;4.05;;;3.85;;
45578;SDS011;31293;51.390;12.254;2023-10-31T01:42:15;4.10;;;3.90;;
45578;SDS011;31293;51.390;12.254;2023-10-31T01:44:18;3.67;;;3.47;;
45578;SDS011;31293;51.390;12.254;2023-10-31T01:46:19;2.85;;;2.75;;
45578;SDS011;31293;51.390;12.254;2023-10-31T01:48:21;2.35;;;2.25;;
45578;SDS011;31293;51.390;12.254;2023-10-31T01:50:25;3.10;;;2.90;;
45578;SDS011;31293;51.390;12.254;2023-10-31T01:52:27;3.90;;;3.65;;
45578;SDS011;31293;51.390;12.254;2023-10-31T01:54:31;3.83;;;3.63;;
45578;SDS011;31293;51.390;12.254;2023-10-31T01:56:36;3.00;;;2.80;;
45578;SDS011;31293;51.390;12.254;2023-10-31T01:58:39;2.25;;;2.15;;
45578;SDS011;31293;51.390;12.254;2023-10-31T02:00:41;3.95;;;3.63;;
45578;SDS011;31293;51.390;12.254;2023-10-31T02:02:44;3.58;;;3.28;;
45578;SDS011;31293;51.390;12.254;2023-10-31T02:04:46;2.90;;;2.72;;
45578;SDS011;31293;51.390;12.254;2023-10-31T02:06:49;3.13;;;2.93;;
45578;SDS011;31293;51.390;12.254;2023-10-31T02:08:52;2.92;;;2.72;;
45578;SDS011;31293;51.390;12.254;2023-10-31T02:10:53;1.92;;;1.83;;
45578;SDS011;31293;51.390;12.254;2023-10-31T02:12:55;3.35;;;3.15;;
45578;SDS011;31293;51.390;12.254;2023-10-31T02:14:57;2.92;;;2.83;;
45578;SDS011;31293;51.390;12.254;2023-10-31T02:16:59;3.15;;;2.85;;
45578;SDS011;31293;51.390;12.254;2023-10-31T02:19:01;2.70;;;2.55;;
45578;SDS011;31293;51.390;12.254;2023-10-31T02:21:04;2.50;;;2.40;;
45578;SDS011;31293;51.390;12.254;2023-10-31T02:23:06;28.50;;;4.88;;
45578;SDS011;31293;51.390;12.254;2023-10-31T02:25:15;2.83;;;2.72;;
45578;SDS011;31293;51.390;12.254;2023-10-31T02:27:18;3.00;;;2.80;;
45578;SDS011;31293;51.390;12.254;2023-10-31T02:29:20;3.10;;;2.83;;
45578;SDS011;31293;51.390;12.254;2023-10-31T02:31:22;3.85;;;3.47;;
45578;SDS011;31293;51.390;12.254;2023-10-31T02:33:24;2.85;;;2.60;;
45578;SDS011;31293;51.390;12.254;2023-10-31T02:35:25;3.17;;;2.97;;
45578;SDS011;31293;51.390;12.254;2023-10-31T02:37:27;2.70;;;2.60;;
45578;SDS011;31293;51.390;12.254;2023-10-31T02:39:29;2.50;;;2.38;;
45578;SDS011;31293;51.390;12.254;2023-10-31T02:41:31;2.55;;;2.45;;
45578;SDS011;31293;51.390;12.254;2023-10-31T02:43:33;2.97;;;2.78;;
45578;SDS011;31293;51.390;12.254;2023-10-31T02:45:35;2.40;;;2.30;;
45578;SDS011;31293;51.390;12.254;2023-10-31T02:47:37;2.30;;;2.20;;
45578;SDS011;31293;51.390;12.254;2023-10-31T02:49:39;2.08;;;1.98;;
45578;SDS011;31293;51.390;12.254;2023-10-31T02:51:41;3.38;;;3.17;;
45578;SDS011;31293;51.390;12.254;2023-10-31T02:53:43;2.92;;;2.72;;
45578;SDS011;31293;51.390;12.254;2023-10-31T02:55:44;2.72;;;2.63;;
45578;SDS011;31293;51.390;12.254;2023-10-31T02:57:46;3.67;;;3.33;;
45578;SDS011;31293;51.390;12.254;2023-10-31T02:59:48;3.55;;;3.35;;
45578;SDS011;31293;51.390;12.254;2023-10-31T03:01:51;4.65;;;4.35;;
45578;SDS011;31293;51.390;12.254;2023-10-31T03:03:54;5.03;;;4.72;;
45578;SDS011;31293;51.390;12.254;2023-10-31T03:05:56;35.83;;;8.77;;
45578;SDS011;31293;51.390;12.254;2023-10-31T03:07:58;4.65;;;4.45;;
45578;SDS011;31293;51.390;12.254;2023-10-31T03:10:00;5.25;;;4.95;;
45578;SDS011;31293;51.390;12.254;2023-10-31T03:12:02;4.97;;;4.70;;
45578;SDS011;31293;51.390;12.254;2023-10-31T03:14:04;5.28;;;4.97;;
45578;SDS011;31293;51.390;12.254;2023-10-31T03:16:06;6.05;;;5.75;;
45578;SDS011;31293;51.390;12.254;2023-10-31T03:18:08;5.60;;;5.20;;
45578;SDS011;31293;51.390;12.254;2023-10-31T03:20:10;5.18;;;4.88;;
45578;SDS011;31293;51.390;12.254;2023-10-31T03:22:12;5.28;;;4.97;;
45578;SDS011;31293;51.390;12.254;2023-10-31T03:24:14;5.13;;;4.75;;
45578;SDS011;31293;51.390;12.254;2023-10-31T03:26:16;4.20;;;4.00;;
45578;SDS011;31293;51.390;12.254;2023-10-31T03:28:19;3.55;;;3.33;;
45578;SDS011;31293;51.390;12.254;2023-10-31T03:30:24;3.13;;;3.03;;
45578;SDS011;31293;51.390;12.254;2023-10-31T03:32:26;3.83;;;3.63;;
45578;SDS011;31293;51.390;12.254;2023-10-31T03:34:28;2.70;;;2.60;;
45578;SDS011;31293;51.390;12.254;2023-10-31T03:36:30;2.88;;;2.78;;
45578;SDS011;31293;51.390;12.254;2023-10-31T03:38:32;3.47;;;3.28;;
45578;SDS011;31293;51.390;12.254;2023-10-31T03:40:35;3.30;;;3.10;;
45578;SDS011;31293;51.390;12.254;2023-10-31T03:42:37;3.17;;;2.92;;
45578;SDS011;31293;51.390;12.254;2023-10-31T03:44:39;3.20;;;3.00;;
45578;SDS011;31293;51.390;12.254;2023-10-31T03:46:41;2.33;;;2.22;;
45578;SDS011;31293;51.390;12.254;2023-10-31T03:48:43;3.03;;;2.83;;
45578;SDS011;31293;51.390;12.254;2023-10-31T03:50:45;2.25;;;2.15;;
45578;SDS011;31293;51.390;12.254;2023-10-31T03:52:47;3.50;;;3.20;;
45578;SDS011;31293;51.390;12.254;2023-10-31T03:54:49;2.25;;;2.15;;
45578;SDS011;31293;51.390;12.254;2023-10-31T03:56:50;2.55;;;2.35;;
45578;SDS011;31293;51.390;12.254;2023-10-31T04:00:56;2.10;;;1.88;;
45578;SDS011;31293;51.390;12.254;2023-10-31T04:02:59;2.05;;;1.95;;
45578;SDS011;31293;51.390;12.254;2023-10-31T04:05:01;2.10;;;2.00;;
45578;SDS011;31293;51.390;12.254;2023-10-31T04:07:03;2.40;;;2.20;;
45578;SDS011;31293;51.390;12.254;2023-10-31T04:09:05;1.63;;;1.58;;
45578;SDS011;31293;51.390;12.254;2023-10-31T04:11:07;1.85;;;1.75;;
45578;SDS011;31293;51.390;12.254;2023-10-31T04:13:09;1.70;;;1.60;;
45578;SDS011;31293;51.390;12.254;2023-10-31T04:15:11;2.28;;;2.05;;
45578;SDS011;31293;51.390;12.254;2023-10-31T04:17:13;1.13;;;1.10;;
45578;SDS011;31293;51.390;12.254;2023-10-31T04:19:15;0.93;;;0.93;;
45578;SDS011;31293;51.390;12.254;2023-10-31T04:21:17;1.35;;;1.15;;
45578;SDS011;31293;51.390;12.254;2023-10-31T04:23:19;1.85;;;1.30;;
45578;SDS011;31293;51.390;12.254;2023-10-31T04:25:21;1.10;;;1.00;;
45578;SDS011;31293;51.390;12.254;2023-10-31T04:27:22;0.75;;;0.75;;
45578;SDS011;31293;51.390;12.254;2023-10-31T04:29:24;0.73;;;0.52;;
45578;SDS011;31293;51.390;12.254;2023-10-31T04:31:26;0.47;;;0.47;;
45578;SDS011;31293;51.390;12.254;2023-10-31T04:33:41;0.45;;;0.45;;
45578;SDS011;31293;51.390;12.254;2023-10-31T04:35:43;1.08;;;1.00;;
45578;SDS011;31293;51.390;12.254;2023-10-31T04:37:45;0.20;;;0.20;;
45578;SDS011;31293;51.390;12.254;2023-10-31T04:39:47;0.47;;;0.47;;
45578;SDS011;31293;51.390;12.254;2023-10-31T04:41:49;0.30;;;0.30;;
45578;SDS011;31293;51.390;12.254;2023-10-31T04:43:51;0.40;;;0.40;;
45578;SDS011;31293;51.390;12.254;2023-10-31T04:45:53;0.30;;;0.30;;
45578;SDS011;31293;51.390;12.254;2023-10-31T04:47:55;0.45;;;0.45;;
45578;SDS011;31293;51.390;12.254;2023-10-31T04:49:57;1.65;;;0.82;;
45578;SDS011;31293;51.390;12.254;2023-10-31T04:54:03;0.30;;;0.30;;
45578;SDS011;31293;51.390;12.254;2023-10-31T04:56:11;0.50;;;0.50;;
45578;SDS011;31293;51.390;12.254;2023-10-31T04:58:17;0.47;;;0.43;;
45578;SDS011;31293;51.390;12.254;2023-10-31T05:00:19;0.22;;;0.22;;
45578;SDS011;31293;51.390;12.254;2023-10-31T05:02:21;0.98;;;0.40;;
45578;SDS011;31293;51.390;12.254;2023-10-31T05:04:24;0.45;;;0.45;;
45578;SDS011;31293;51.390;12.254;2023-10-31T05:06:26;1.02;;;0.40;;
45578;SDS011;31293;51.390;12.254;2023-10-31T05:08:28;0.30;;;0.30;;
45578;SDS011;31293;51.390;12.254;2023-10-31T05:10:30;0.30;;;0.30;;
45578;SDS011;31293;51.390;12.254;2023-10-31T05:12:32;0.20;;;0.20;;
45578;SDS011;31293;51.390;12.254;2023-10-31T05:14:33;0.30;;;0.30;;
45578;SDS011;31293;51.390;12.254;2023-10-31T05:16:39;0.30;;;0.30;;
45578;SDS011;31293;51.390;12.254;2023-10-31T05:18:44;0.65;;;0.22;;
45578;SDS011;31293;51.390;12.254;2023-10-31T05:20:46;0.20;;;0.20;;
45578;SDS011;31293;51.390;12.254;2023-10-31T05:22:48;0.10;;;0.10;;
45578;SDS011;31293;51.390;12.254;2023-10-31T05:24:49;0.30;;;0.30;;
45578;SDS011;31293;51.390;12.254;2023-10-31T05:26:52;0.20;;;0.20;;
45578;SDS011;31293;51.390;12.254;2023-10-31T05:28:55;0.35;;;0.30;;
45578;SDS011;31293;51.390;12.254;2023-10-31T05:30:59;0.10;;;0.10;;
45578;SDS011;31293;51.390;12.254;2023-10-31T05:33:02;0.30;;;0.20;;
45578;SDS011;31293;51.390;12.254;2023-10-31T05:35:04;0.00;;;0.00;;
45578;SDS011;31293;51.390;12.254;2023-10-31T05:37:07;0.10;;;0.10;;
45578;SDS011;31293;51.390;12.254;2023-10-31T05:39:09;0.10;;;0.00;;
45578;SDS011;31293;51.390;12.254;2023-10-31T05:41:11;1.48;;;0.60;;
45578;SDS011;31293;51.390;12.254;2023-10-31T05:43:13;0.00;;;0.00;;
45578;SDS011;31293;51.390;12.254;2023-10-31T05:45:14;0.10;;;0.10;;
45578;SDS011;31293;51.390;12.254;2023-10-31T05:47:16;0.45;;;0.17;;
45578;SDS011;31293;51.390;12.254;2023-10-31T05:49:18;0.30;;;0.20;;
45578;SDS011;31293;51.390;12.254;2023-10-31T05:51:20;0.00;;;0.00;;
45578;SDS011;31293;51.390;12.254;2023-10-31T05:53:23;0.17;;;0.10;;
45578;SDS011;31293;51.390;12.254;2023-10-31T05:55:25;0.15;;;0.15;;
45578;SDS011;31293;51.390;12.254;2023-10-31T05:57:27;0.60;;;0.10;;
45578;SDS011;31293;51.390;12.254;2023-10-31T05:59:28;0.10;;;0.10;;
45578;SDS011;31293;51.390;12.254;2023-10-31T06:01:30;0.73;;;0.20;;
45578;SDS011;31293;51.390;12.254;2023-10-31T06:03:32;0.10;;;0.00;;
45578;SDS011;31293;51.390;12.254;2023-10-31T06:05:34;0.47;;;0.35;;
45578;SDS011;31293;51.390;12.254;2023-10-31T06:07:36;0.45;;;0.20;;
45578;SDS011;31293;51.390;12.254;2023-10-31T06:09:39;0.55;;;0.15;;
45578;SDS011;31293;51.390;12.254;2023-10-31T06:11:41;1.15;;;0.10;;
45578;SDS011;31293;51.390;12.254;2023-10-31T06:13:46;0.00;;;0.00;;
45578;SDS011;31293;51.390;12.254;2023-10-31T06:15:49;0.30;;;0.30;;
45578;SDS011;31293;51.390;12.254;2023-10-31T06:17:51;0.10;;;0.00;;
45578;SDS011;31293;51.390;12.254;2023-10-31T06:19:53;1.15;;;0.28;;
45578;SDS011;31293;51.390;12.254;2023-10-31T06:21:54;0.00;;;0.00;;
45578;SDS011;31293;51.390;12.254;2023-10-31T06:23:56;0.00;;;0.00;;
45578;SDS011;31293;51.390;12.254;2023-10-31T06:25:58;0.00;;;0.00;;
45578;SDS011;31293;51.390;12.254;2023-10-31T06:28:00;0.10;;;0.10;;
45578;SDS011;31293;51.390;12.254;2023-10-31T06:30:02;0.82;;;0.20;;
45578;SDS011;31293;51.390;12.254;2023-10-31T06:32:21;0.10;;;0.10;;
45578;SDS011;31293;51.390;12.254;2023-10-31T06:34:23;0.10;;;0.10;;
45578;SDS011;31293;51.390;12.254;2023-10-31T06:36:27;0.10;;;0.10;;
45578;SDS011;31293;51.390;12.254;2023-10-31T06:38:28;0.10;;;0.10;;
45578;SDS011;31293;51.390;12.254;2023-10-31T06:40:30;0.22;;;0.20;;
45578;SDS011;31293;51.390;12.254;2023-10-31T06:42:32;1.17;;;0.10;;
45578;SDS011;31293;51.390;12.254;2023-10-31T06:44:34;0.10;;;0.03;;
45578;SDS011;31293;51.390;12.254;2023-10-31T06:46:36;0.10;;;0.10;;
45578;SDS011;31293;51.390;12.254;2023-10-31T06:48:38;0.03;;;0.00;;
45578;SDS011;31293;51.390;12.254;2023-10-31T06:50:39;0.00;;;0.00;;
45578;SDS011;31293;51.390;12.254;2023-10-31T06:52:41;0.10;;;0.10;;
45578;SDS011;31293;51.390;12.254;2023-10-31T06:54:43;0.55;;;0.13;;
45578;SDS011;31293;51.390;12.254;2023-10-31T06:56:45;1.38;;;0.30;;
45578;SDS011;31293;51.390;12.254;2023-10-31T06:58:47;0.85;;;0.20;;
45578;SDS011;31293;51.390;12.254;2023-10-31T07:00:49;0.00;;;0.00;;
45578;SDS011;31293;51.390;12.254;2023-10-31T07:02:51;4.38;;;0.20;;
45578;SDS011;31293;51.390;12.254;2023-10-31T07:04:58;0.17;;;0.10;;
45578;SDS011;31293;51.390;12.254;2023-10-31T07:07:02;1.08;;;0.20;;
45578;SDS011;31293;51.390;12.254;2023-10-31T07:09:06;0.10;;;0.10;;
45578;SDS011;31293;51.390;12.254;2023-10-31T07:11:22;0.38;;;0.38;;
45578;SDS011;31293;51.390;12.254;2023-10-31T07:13:25;0.00;;;0.00;;
45578;SDS011;31293;51.390;12.254;2023-10-31T07:15:30;0.00;;;0.00;;
45578;SDS011;31293;51.390;12.254;2023-10-31T07:17:48;0.00;;;0.00;;
45578;SDS011;31293;51.390;12.254;2023-10-31T07:19:50;0.00;;;0.00;;
45578;SDS011;31293;51.390;12.254;2023-10-31T07:21:52;0.00;;;0.00;;
45578;SDS011;31293;51.390;12.254;2023-10-31T07:23:55;0.08;;;0.08;;
45578;SDS011;31293;51.390;12.254;2023-10-31T07:25:57;0.10;;;0.10;;
45578;SDS011;31293;51.390;12.254;2023-10-31T07:27:59;1.90;;;0.13;;
45578;SDS011;31293;51.390;12.254;2023-10-31T07:30:04;3.45;;;0.05;;
45578;SDS011;31293;51.390;12.254;2023-10-31T07:32:07;0.30;;;0.17;;
45578;SDS011;31293;51.390;12.254;2023-10-31T07:34:11;0.40;;;0.35;;
45578;SDS011;31293;51.390;12.254;2023-10-31T07:36:13;0.10;;;0.00;;
45578;SDS011;31293;51.390;12.254;2023-10-31T07:38:15;0.30;;;0.17;;
45578;SDS011;31293;51.390;12.254;2023-10-31T07:40:17;0.28;;;0.05;;
45578;SDS011;31293;51.390;12.254;2023-10-31T07:42:19;0.15;;;0.10;;
45578;SDS011;31293;51.390;12.254;2023-10-31T07:44:20;0.40;;;0.30;;
45578;SDS011;31293;51.390;12.254;2023-10-31T07:46:22;0.85;;;0.10;;
45578;SDS011;31293;51.390;12.254;2023-10-31T07:48:24;0.32;;;0.10;;
45578;SDS011;31293;51.390;12.254;2023-10-31T07:50:26;0.30;;;0.10;;
45578;SDS011;31293;51.390;12.254;2023-10-31T07:52:28;0.10;;;0.00;;
45578;SDS011;31293;51.390;12.254;2023-10-31T07:54:30;0.10;;;0.10;;
45578;SDS011;31293;51.390;12.254;2023-10-31T07:56:32;0.00;;;0.00;;
45578;SDS011;31293;51.390;12.254;2023-10-31T07:58:36;0.10;;;0.10;;
45578;SDS011;31293;51.390;12.254;2023-10-31T08:00:38;0.08;;;0.03;;
45578;SDS011;31293;51.390;12.254;2023-10-31T08:02:40;0.10;;;0.10;;
45578;SDS011;31293;51.390;12.254;2023-10-31T08:04:42;0.10;;;0.10;;
45578;SDS011;31293;51.390;12.254;2023-10-31T08:06:44;0.08;;;0.08;;
45578;SDS011;31293;51.390;12.254;2023-10-31T08:08:46;0.38;;;0.10;;
45578;SDS011;31293;51.390;12.254;2023-10-31T08:10:47;0.90;;;0.20;;
45578;SDS011;31293;51.390;12.254;2023-10-31T08:12:49;0.10;;;0.10;;
45578;SDS011;31293;51.390;12.254;2023-10-31T08:14:51;1.55;;;0.15;;
45578;SDS011;31293;51.390;12.254;2023-10-31T08:16:53;1.40;;;0.20;;
45578;SDS011;31293;51.390;12.254;2023-10-31T08:18:56;0.10;;;0.10;;
45578;SDS011;31293;51.390;12.254;2023-10-31T08:20:58;1.05;;;0.20;;
45578;SDS011;31293;51.390;12.254;2023-10-31T08:23:00;1.75;;;0.10;;
45578;SDS011;31293;51.390;12.254;2023-10-31T08:25:02;0.73;;;0.10;;
45578;SDS011;31293;51.390;12.254;2023-10-31T08:27:04;0.10;;;0.00;;
45578;SDS011;31293;51.390;12.254;2023-10-31T08:29:07;0.45;;;0.10;;
45578;SDS011;31293;51.390;12.254;2023-10-31T08:31:09;0.10;;;0.00;;
45578;SDS011;31293;51.390;12.254;2023-10-31T08:33:11;0.80;;;0.10;;
45578;SDS011;31293;51.390;12.254;2023-10-31T08:35:12;0.08;;;0.08;;
45578;SDS011;31293;51.390;12.254;2023-10-31T08:37:14;0.05;;;0.00;;
45578;SDS011;31293;51.390;12.254;2023-10-31T08:39:16;0.63;;;0.10;;
45578;SDS011;31293;51.390;12.254;2023-10-31T08:41:18;0.28;;;0.10;;
45578;SDS011;31293;51.390;12.254;2023-10-31T08:43:21;0.30;;;0.20;;
45578;SDS011;31293;51.390;12.254;2023-10-31T08:45:23;0.65;;;0.25;;
45578;SDS011;31293;51.390;12.254;2023-10-31T08:47:26;0.25;;;0.10;;
45578;SDS011;31293;51.390;12.254;2023-10-31T08:49:29;0.32;;;0.20;;
45578;SDS011;31293;51.390;12.254;2023-10-31T08:51:31;0.52;;;0.10;;
45578;SDS011;31293;51.390;12.254;2023-10-31T08:53:33;0.50;;;0.10;;
45578;SDS011;31293;51.390;12.254;2023-10-31T08:55:35;0.47;;;0.10;;
45578;SDS011;31293;51.390;12.254;2023-10-31T08:57:37;0.52;;;0.10;;
45578;SDS011;31293;51.390;12.254;2023-10-31T08:59:39;0.00;;;0.00;;
45578;SDS011;31293;51.390;12.254;2023-10-31T09:01:42;0.20;;;0.10;;
45578;SDS011;31293;51.390;12.254;2023-10-31T09:03:46;1.35;;;0.10;;
45578;SDS011;31293;51.390;12.254;2023-10-31T09:05:47;0.43;;;0.10;;
45578;SDS011;31293;51.390;12.254;2023-10-31T09:07:49;0.10;;;0.00;;
45578;SDS011;31293;51.390;12.254;2023-10-31T09:09:51;1.75;;;0.10;;
45578;SDS011;31293;51.390;12.254;2023-10-31T09:11:53;0.30;;;0.10;;
45578;SDS011;31293;51.390;12.254;2023-10-31T09:13:55;0.28;;;0.10;;
45578;SDS011;31293;51.390;12.254;2023-10-31T09:15:59;2.72;;;0.20;;
45578;SDS011;31293;51.390;12.254;2023-10-31T09:18:04;0.20;;;0.03;;
45578;SDS011;31293;51.390;12.254;2023-10-31T09:20:10;0.00;;;0.00;;
45578;SDS011;31293;51.390;12.254;2023-10-31T09:22:12;0.68;;;0.10;;
45578;SDS011;31293;51.390;12.254;2023-10-31T09:38:03;0.28;;;0.00;;
45578;SDS011;31293;51.390;12.254;2023-10-31T09:40:08;0.10;;;0.10;;
45578;SDS011;31293;51.390;12.254;2023-10-31T09:42:19;0.10;;;0.00;;
45578;SDS011;31293;51.390;12.254;2023-10-31T09:44:22;0.50;;;0.00;;
45578;SDS011;31293;51.390;12.254;2023-10-31T09:46:27;0.00;;;0.00;;
45578;SDS011;31293;51.390;12.254;2023-10-31T09:48:33;0.57;;;0.10;;
45578;SDS011;31293;51.390;12.254;2023-10-31T09:50:35;0.10;;;0.00;;
45578;SDS011;31293;51.390;12.254;2023-10-31T09:52:40;1.80;;;0.00;;
45578;SDS011;31293;51.390;12.254;2023-10-31T09:54:45;1.05;;;0.10;;
45578;SDS011;31293;51.390;12.254;2023-10-31T09:56:49;1.58;;;0.20;;
45578;SDS011;31293;51.390;12.254;2023-10-31T09:58:54;0.10;;;0.10;;
45578;SDS011;31293;51.390;12.254;2023-10-31T10:00:56;0.80;;;0.10;;
45578;SDS011;31293;51.390;12.254;2023-10-31T10:02:59;0.25;;;0.00;;
45578;SDS011;31293;51.390;12.254;2023-10-31T10:05:01;0.93;;;0.03;;
45578;SDS011;31293;51.390;12.254;2023-10-31T10:07:04;1.42;;;0.10;;
45578;SDS011;31293;51.390;12.254;2023-10-31T10:09:06;0.32;;;0.10;;
45578;SDS011;31293;51.390;12.254;2023-10-31T10:11:09;0.10;;;0.00;;
45578;SDS011;31293;51.390;12.254;2023-10-31T10:13:12;0.30;;;0.10;;
45578;SDS011;31293;51.390;12.254;2023-10-31T10:15:14;0.65;;;0.10;;
45578;SDS011;31293;51.390;12.254;2023-10-31T10:17:17;0.55;;;0.20;;
45578;SDS011;31293;51.390;12.254;2023-10-31T10:19:22;4.40;;;0.15;;
45578;SDS011;31293;51.390;12.254;2023-10-31T10:21:24;0.43;;;0.10;;
45578;SDS011;31293;51.390;12.254;2023-10-31T10:23:28;0.47;;;0.10;;
45578;SDS011;31293;51.390;12.254;2023-10-31T10:25:30;0.10;;;0.08;;
45578;SDS011;31293;51.390;12.254;2023-10-31T10:27:44;0.20;;;0.10;;
45578;SDS011;31293;51.390;12.254;2023-10-31T10:29:49;0.55;;;0.10;;
45578;SDS011;31293;51.390;12.254;2023-10-31T10:31:56;0.10;;;0.10;;
45578;SDS011;31293;51.390;12.254;2023-10-31T10:33:59;0.10;;;0.08;;
45578;SDS011;31293;51.390;12.254;2023-10-31T10:36:03;0.20;;;0.00;;
45578;SDS011;31293;51.390;12.254;2023-10-31T10:38:07;0.10;;;0.10;;
45578;SDS011;31293;51.390;12.254;2023-10-31T10:40:15;0.20;;;0.10;;
45578;SDS011;31293;51.390;12.254;2023-10-31T10:42:18;0.10;;;0.10;;
45578;SDS011;31293;51.390;12.254;2023-10-31T10:46:34;0.20;;;0.00;;
45578;SDS011;31293;51.390;12.254;2023-10-31T10:48:39;0.00;;;0.00;;
45578;SDS011;31293;51.390;12.254;2023-10-31T10:50:51;0.55;;;0.25;;
45578;SDS011;31293;51.390;12.254;2023-10-31T10:53:00;0.20;;;0.10;;
45578;SDS011;31293;51.390;12.254;2023-10-31T10:55:12;0.10;;;0.10;;
45578;SDS011;31293;51.390;12.254;2023-10-31T10:57:21;0.17;;;0.10;;
45578;SDS011;31293;51.390;12.254;2023-10-31T10:59:38;0.55;;;0.15;;
45578;SDS011;31293;51.390;12.254;2023-10-31T11:01:43;0.10;;;0.10;;
45578;SDS011;31293;51.390;12.254;2023-10-31T11:03:48;0.30;;;0.15;;
45578;SDS011;31293;51.390;12.254;2023-10-31T11:05:50;0.88;;;0.10;;
45578;SDS011;31293;51.390;12.254;2023-10-31T11:07:53;0.30;;;0.10;;
45578;SDS011;31293;51.390;12.254;2023-10-31T11:10:00;1.85;;;0.30;;
45578;SDS011;31293;51.390;12.254;2023-10-31T11:12:04;0.15;;;0.10;;
45578;SDS011;31293;51.390;12.254;2023-10-31T11:14:07;0.08;;;0.03;;
45578;SDS011;31293;51.390;12.254;2023-10-31T11:18:17;0.68;;;0.30;;
45578;SDS011;31293;51.390;12.254;2023-10-31T11:20:20;0.50;;;0.10;;
45578;SDS011;31293;51.390;12.254;2023-10-31T11:22:22;0.13;;;0.10;;
45578;SDS011;31293;51.390;12.254;2023-10-31T11:24:36;0.10;;;0.10;;
45578;SDS011;31293;51.390;12.254;2023-10-31T11:26:50;0.10;;;0.10;;
45578;SDS011;31293;51.390;12.254;2023-10-31T11:29:06;0.22;;;0.10;;
45578;SDS011;31293;51.390;12.254;2023-10-31T11:33:39;0.20;;;0.10;;
45578;SDS011;31293;51.390;12.254;2023-10-31T11:35:42;3.20;;;0.10;;
45578;SDS011;31293;51.390;12.254;2023-10-31T11:37:47;1.38;;;0.10;;
45578;SDS011;31293;51.390;12.254;2023-10-31T11:42:26;0.10;;;0.10;;
45578;SDS011;31293;51.390;12.254;2023-10-31T11:44:28;0.17;;;0.10;;
45578;SDS011;31293;51.390;12.254;2023-10-31T11:46:30;0.40;;;0.20;;
45578;SDS011;31293;51.390;12.254;2023-10-31T11:48:53;0.22;;;0.10;;
45578;SDS011;31293;51.390;12.254;2023-10-31T11:50:58;0.13;;;0.10;;
45578;SDS011;31293;51.390;12.254;2023-10-31T11:53:03;0.30;;;0.10;;
45578;SDS011;31293;51.390;12.254;2023-10-31T11:55:13;0.40;;;0.20;;
45578;SDS011;31293;51.390;12.254;2023-10-31T11:57:33;0.30;;;0.15;;
45578;SDS011;31293;51.390;12.254;2023-10-31T11:59:38;1.17;;;0.13;;
45578;SDS011;31293;51.390;12.254;2023-10-31T12:01:45;0.50;;;0.20;;
45578;SDS011;31293;51.390;12.254;2023-10-31T12:03:48;0.30;;;0.20;;
45578;SDS011;31293;51.390;12.254;2023-10-31T12:05:52;0.20;;;0.15;;
45578;SDS011;31293;51.390;12.254;2023-10-31T12:07:58;0.10;;;0.10;;
45578;SDS011;31293;51.390;12.254;2023-10-31T12:10:04;2.45;;;0.30;;
45578;SDS011;31293;51.390;12.254;2023-10-31T12:12:06;0.30;;;0.17;;
45578;SDS011;31293;51.390;12.254;2023-10-31T12:14:11;5.18;;;0.47;;
45578;SDS011;31293;51.390;12.254;2023-10-31T12:16:22;0.20;;;0.20;;
45578;SDS011;31293;51.390;12.254;2023-10-31T12:18:34;1.30;;;0.28;;
45578;SDS011;31293;51.390;12.254;2023-10-31T12:20:46;0.30;;;0.10;;
45578;SDS011;31293;51.390;12.254;2023-10-31T12:23:02;0.60;;;0.20;;
45578;SDS011;31293;51.390;12.254;2023-10-31T12:25:06;1.30;;;0.17;;
45578;SDS011;31293;51.390;12.254;2023-10-31T12:29:17;0.50;;;0.20;;
45578;SDS011;31293;51.390;12.254;2023-10-31T12:31:20;2.83;;;0.30;;
45578;SDS011;31293;51.390;12.254;2023-10-31T12:33:24;0.77;;;0.13;;
45578;SDS011;31293;51.390;12.254;2023-10-31T12:35:27;0.65;;;0.20;;
45578;SDS011;31293;51.390;12.254;2023-10-31T12:37:30;1.20;;;0.20;;
45578;SDS011;31293;51.390;12.254;2023-10-31T12:39:32;0.85;;;0.20;;
45578;SDS011;31293;51.390;12.254;2023-10-31T12:41:38;0.20;;;0.10;;